Terminal Aerodrome Forecast
Issued by NWS Bismarck, ND

Home | Current Version | Previous Version | Graphics & Text | Print | Product List | Glossary On
Versions: 1 2 3 4 5 6 7 8 9 10 11 12 13 14 15 16
722
FTUS43 KBIS 190539
TAFISN
TAF
KISN 190539Z 1906/2006 VRB03KT P6SM BKN200
     FM191100 04004KT P6SM FEW200 SCT250
     FM191600 08008KT P6SM FEW250
     FM192300 10007KT P6SM FEW250
     FM200300 13004KT P6SM SKC=

USA.gov is the U.S. government's official web portal to all federal, state and local government web resources and services.